VK5ADE Weather Reports


Display with metric or nautical units.
time (UTC)temp
F
wind
direction
speed
MPH
gust
MPH
rain 1hr
in
rain 24hr
in
rain mn
in
humidity
%
barometer
mb
20221204174558 61 182 3.0 10.0 0.00 0.00 0.00 75 1012.0
20221204173057 61 164 3.0 12.0 0.00 0.00 0.00 77 1011.8
20221204171556 61 150 5.0 13.0 0.00 0.00 0.00 79 1011.9
20221204170156 61 182 5.0 12.0 0.00 0.00 0.00 78 1011.8
20221204164555 61 167 6.0 11.0 0.00 0.00 0.00 80 1011.6
20221204163053 61 222 5.0 15.0 0.00 0.00 0.00 81 1011.7
20221204161555 61 167 5.0 14.0 0.00 0.00 0.00 81 1011.9
20221204160053 61 190 5.0 14.0 0.00 0.00 0.00 80 1011.9
20221204154552 61 171 4.0 9.0 0.00 0.00 0.00 81 1011.9
20221204153047 61 152 4.0 10.0 0.00 0.00 0.00 80 1012.0
20221204151546 62 195 5.0 12.0 0.00 0.00 0.00 79 1012.6
20221204150042 62 202 3.0 9.0 0.00 0.00 0.00 76 1012.7
20221204144542 62 184 3.0 9.0 0.00 0.00 0.00 78 1012.6
20221204143042 62 224 3.0 9.0 0.00 0.00 0.00 79 1012.2
20221204141538 62 171 4.0 8.0 0.00 0.00 0.00 78 1012.6
20221204140037 62 156 3.0 9.0 0.00 0.00 0.00 77 1012.6
20221204134536 62 163 0.0 6.0 0.00 0.00 0.00 78 1012.9
20221204133037 62 175 1.0 7.0 0.00 0.00 0.00 78 1012.5
20221204131535 62 166 4.0 10.0 0.00 0.00 0.00 78 1012.3
20221204130033 62 192 3.0 9.0 0.00 0.00 0.00 78 1012.8
20221204124535 62 223 2.0 10.0 0.00 0.00 0.00 79 1012.5
20221204123036 62 184 1.0 7.0 0.00 0.00 0.00 79 1011.9
20221204121534 62 188 1.0 8.0 0.00 0.00 0.00 79 1012.3
20221204120031 62 184 3.0 11.0 0.00 0.00 0.00 79 1012.1
20221204114529 62 169 3.0 12.0 0.00 0.00 0.00 79 1012.2
20221204113029 62 186 3.0 8.0 0.00 0.00 0.00 79 1012.4
20221204111537 62 178 2.0 8.0 0.00 0.00 0.00 80 1012.2
20221204110030 62 174 1.0 9.0 0.00 0.00 0.00 80 1012.0
20221204104527 62 150 4.0 13.0 0.00 0.00 0.00 80 1011.8
20221204103026 62 215 2.0 11.0 0.00 0.00 0.00 80 1012.1
20221204101522 62 165 1.0 8.0 0.00 0.00 0.00 81 1011.0
20221204100020 62 181 3.0 10.0 0.00 0.00 0.00 81 1010.4
20221204094520 62 226 3.0 9.0 0.00 0.00 0.00 80 1010.3
20221204093019 63 171 5.0 10.0 0.00 0.00 0.00 80 1010.7
20221204091532 63 163 2.0 10.0 0.00 0.00 0.00 81 1010.1
20221204090024 63 161 3.0 8.0 0.00 0.00 0.00 80 1010.0
20221204084517 63 171 6.0 14.0 0.00 0.00 0.00 80 1009.4
20221204083018 63 165 5.0 13.0 0.00 0.00 0.00 80 1009.1
20221204081513 64 184 5.0 12.0 0.00 0.00 0.00 80 1008.8
20221204080012 64 173 4.0 12.0 0.00 0.00 0.00 81 1008.7
20221204074511 64 174 5.0 11.0 0.00 0.00 0.00 80 1008.4
20221204073011 65 174 4.0 17.0 0.00 0.00 0.00 78 1008.1
20221204071511 65 169 5.0 18.0 0.00 0.00 0.00 79 1007.9
20221204070011 65 167 4.0 10.0 0.00 0.00 0.00 79 1008.2
20221204064510 66 178 3.0 8.0 0.00 0.00 0.00 78 1008.0
20221204063009 67 157 3.0 8.0 0.00 0.00 0.00 78 1008.0
20221204061509 67 155 3.0 12.0 0.00 0.00 0.00 78 1007.9
20221204060008 67 220 4.0 13.0 0.00 0.00 0.00 78 1008.0
20221204054507 67 186 3.0 10.0 0.00 0.00 0.00 79 1007.6
20221204053007 67 175 3.0 11.0 0.00 0.00 0.00 78 1007.8
20221204051507 68 213 3.0 12.0 0.00 0.00 0.00 77 1007.8
20221204050016 69 205 3.0 10.0 0.00 0.00 0.00 75 1007.8
20221204044509 71 194 2.0 9.0 0.00 0.00 0.00 73 1007.7
20221204043006 71 214 5.0 15.0 0.00 0.00 0.00 74 1007.8
20221204041502 73 176 5.0 10.0 0.00 0.00 0.00 72 1007.8
20221204040002 73 176 3.0 10.0 0.00 0.00 0.00 71 1007.7
20221204034611 74 162 1.0 7.0 0.00 0.00 0.00 67 1007.2
20221204033102 76 175 1.0 9.0 0.00 0.00 0.00 63 1007.4
20221204031601 76 223 3.0 8.0 0.00 0.00 0.00 59 1007.9
20221204030056 80 174 2.0 13.0 0.00 0.00 0.00 48 1008.0
20221204024556 91 167 1.0 5.0 0.00 0.00 0.00 26 1007.3
20221204023054 92 153 1.0 9.0 0.00 0.00 0.00 24 1006.9
20221204021553 92 177 1.0 6.0 0.00 0.00 0.00 23 1007.0
20221204020106 92 206 0.0 5.0 0.00 0.00 0.00 24 1007.4
20221204014601 92 299 1.0 10.0 0.00 0.00 0.00 24 1007.3
20221204013102 91 221 0.0 6.0 0.00 0.00 0.00 24 1007.3
20221204011549 93 304 1.0 8.0 0.00 0.00 0.00 23 1007.5
20221204010049 93 165 1.0 9.0 0.00 0.00 0.00 23 1007.2
20221204004547 90 251 2.0 7.0 0.00 0.00 0.00 24 1007.3
20221204003043 90 217 4.0 11.0 0.00 0.00 0.00 24 1007.4
20221204001543 88 309 5.0 11.0 0.00 0.00 0.00 25 1007.1
20221204000043 89 306 7.0 14.0 0.00 0.00 0.00 25 1007.0
20221203234554 89 291 7.0 11.0 0.00 0.00 0.00 25 1006.9
20221203233041 89 164 6.0 13.0 0.00 0.00 0.00 24 1007.0
20221203231545 89 294 7.0 14.0 0.00 0.00 0.00 24 1006.9
20221203230035 88 327 4.0 10.0 0.00 0.00 0.00 26 1007.0
20221203224531 86 138 1.0 4.0 0.00 0.00 0.00 32 1007.2
20221203223028 84 277 2.0 5.0 0.00 0.00 0.00 33 1007.4
20221203221537 83 283 2.0 4.0 0.00 0.00 0.00 35 1007.5
20221203220020 81 274 1.0 4.0 0.00 0.00 0.00 36 1007.7
20221203214516 76 165 0.0 0.0 0.00 0.00 0.00 46 1007.6
20221203213012 74 165 0.0 0.0 0.00 0.00 0.00 45 1007.6
20221203211507 71 165 0.0 0.0 0.00 0.00 0.00 51 1007.5
20221203210004 67 165 0.0 0.0 0.00 0.00 0.00 57 1007.4
20221203204558 64 165 0.0 0.0 0.00 0.00 0.00 60 1007.5
20221203203056 62 165 0.0 0.0 0.00 0.00 0.00 60 1007.3
20221203201601 0 0.0 0.0 0.00 0.00 0.00 1007.1
20221203200047 0 0.0 0.0 0.00 0.00 0.00 1007.0
20221203194545 0 0.0 0.0 0.00 0.00 0.00 1007.0
20221203193038 0 0.0 0.0 0.00 0.00 0.00 1007.0
20221203191534 0 0.0 0.0 0.00 0.00 0.00 1007.1
20221203190035 0 0.0 0.0 0.00 0.00 0.00 1007.2
20221203184532 0 0.0 0.0 0.00 0.00 0.00 1007.2
20221203183021 0 0.0 0.0 0.00 0.00 0.00 1007.3
20221203181520 0 0.0 0.0 0.00 0.00 0.00 1007.2
20221203180013 0 0.0 0.0 0.00 0.00 0.00 1007.0